createdAt,value
2019-02-22T00:01:40.941Z,8.90
2019-02-22T00:03:35.622Z,8.90
2019-02-22T00:05:30.565Z,8.90
2019-02-22T00:07:24.874Z,8.90
2019-02-22T00:09:19.984Z,8.90
2019-02-22T00:11:16.707Z,8.90
2019-02-22T00:13:11.190Z,8.90
2019-02-22T00:15:07.170Z,8.90
2019-02-22T00:17:01.798Z,8.80
2019-02-22T00:18:58.595Z,8.80
2019-02-22T00:20:52.532Z,8.80
2019-02-22T00:22:47.476Z,8.80
2019-02-22T00:24:42.086Z,8.80
2019-02-22T00:26:36.631Z,8.80
2019-02-22T00:28:30.622Z,8.80
2019-02-22T00:30:24.959Z,8.80
2019-02-22T00:32:19.762Z,8.80
2019-02-22T00:34:14.461Z,8.80
2019-02-22T00:36:14.063Z,8.80
2019-02-22T00:38:09.178Z,8.80
2019-02-22T00:40:04.170Z,8.70
2019-02-22T00:41:58.978Z,8.70
2019-02-22T00:43:53.654Z,8.60
2019-02-22T00:45:48.570Z,8.50
2019-02-22T00:47:43.207Z,8.50
2019-02-22T00:49:38.102Z,8.40
2019-02-22T00:51:32.527Z,8.40
2019-02-22T00:53:26.652Z,8.40
2019-02-22T00:55:21.615Z,8.30
2019-02-22T00:57:16.420Z,8.30
2019-02-22T00:59:11.000Z,8.30
2019-02-22T01:01:05.319Z,8.20
2019-02-22T01:03:00.250Z,8.20
2019-02-22T01:04:54.527Z,8.20
2019-02-22T01:06:49.664Z,8.20
2019-02-22T01:08:44.288Z,8.20
2019-02-22T01:10:39.879Z,8.20
2019-02-22T01:12:35.220Z,8.20
2019-02-22T01:14:34.132Z,8.20
2019-02-22T01:16:28.245Z,8.20
2019-02-22T01:18:25.875Z,8.20
2019-02-22T01:20:22.506Z,8.20
2019-02-22T01:22:19.919Z,8.20
2019-02-22T01:24:14.516Z,8.20
2019-02-22T01:26:09.512Z,8.10
2019-02-22T01:28:04.378Z,8.10
2019-02-22T01:29:59.075Z,8.10
2019-02-22T01:31:53.752Z,8.10
2019-02-22T01:33:48.231Z,8.00
2019-02-22T01:35:43.149Z,8.00
2019-02-22T01:37:38.120Z,8.00
2019-02-22T01:39:32.221Z,8.00
2019-02-22T01:41:26.788Z,8.00
2019-02-22T01:43:22.559Z,8.00
2019-02-22T01:45:19.252Z,8.10
2019-02-22T01:47:13.944Z,8.10
2019-02-22T01:49:08.311Z,8.10
2019-02-22T01:51:03.676Z,8.10
2019-02-22T01:52:59.059Z,8.10
2019-02-22T01:54:53.723Z,8.10
2019-02-22T01:56:48.697Z,8.10
2019-02-22T01:58:48.819Z,8.20
2019-02-22T02:00:42.459Z,8.20
2019-02-22T02:02:37.042Z,8.20
2019-02-22T02:04:31.164Z,8.20
2019-02-22T02:06:26.116Z,8.20
2019-02-22T02:08:20.159Z,8.30
2019-02-22T02:10:15.011Z,8.30
2019-02-22T02:12:12.420Z,8.30
2019-02-22T02:14:06.471Z,8.30
2019-02-22T02:16:01.619Z,8.30
2019-02-22T02:17:56.160Z,8.30
2019-02-22T02:19:50.723Z,8.30
2019-02-22T02:21:47.077Z,8.20
2019-02-22T02:23:41.608Z,8.30
2019-02-22T02:25:36.242Z,8.30
2019-02-22T02:27:31.649Z,8.30
2019-02-22T02:29:26.307Z,8.30
2019-02-22T02:31:20.849Z,8.30
2019-02-22T02:33:15.504Z,8.30
2019-02-22T02:35:10.140Z,8.20
2019-02-22T02:37:04.741Z,8.20
2019-02-22T02:38:59.358Z,8.20
2019-02-22T02:41:06.837Z,8.20
2019-02-22T02:42:50.980Z,8.20
2019-02-22T02:44:44.770Z,8.20
2019-02-22T02:46:38.742Z,8.20
2019-02-22T02:48:32.942Z,8.20
2019-02-22T02:50:27.686Z,8.20
2019-02-22T02:52:22.746Z,8.20
2019-02-22T02:54:17.408Z,8.20
2019-02-22T02:56:12.060Z,8.10
2019-02-22T02:58:06.719Z,8.20
2019-02-22T03:00:01.497Z,8.20
2019-02-22T03:01:56.481Z,8.20
2019-02-22T03:03:51.399Z,8.20
2019-02-22T03:05:52.178Z,8.10
2019-02-22T03:07:47.651Z,8.20
2019-02-22T03:09:42.631Z,8.20
2019-02-22T03:11:37.680Z,8.20
2019-02-22T03:13:32.299Z,8.20
2019-02-22T03:15:26.895Z,8.20
2019-02-22T03:17:21.458Z,8.20
2019-02-22T03:19:16.223Z,8.20
2019-02-22T03:21:10.963Z,8.10
2019-02-22T03:23:04.914Z,8.10
2019-02-22T03:24:59.177Z,8.10
2019-02-22T03:26:54.021Z,8.00
2019-02-22T03:28:48.615Z,7.90
2019-02-22T03:30:43.523Z,7.90
2019-02-22T03:32:38.575Z,7.80
2019-02-22T03:34:32.532Z,7.70
2019-02-22T03:36:26.873Z,7.70
2019-02-22T03:38:21.935Z,7.60
2019-02-22T03:40:16.766Z,7.50
2019-02-22T03:42:11.687Z,7.50
2019-02-22T03:44:07.901Z,7.40
2019-02-22T03:46:01.614Z,7.40
2019-02-22T03:47:56.603Z,7.30
2019-02-22T03:49:51.207Z,7.30
2019-02-22T03:51:45.279Z,7.30
2019-02-22T03:53:51.672Z,7.20
2019-02-22T03:55:45.623Z,7.20
2019-02-22T03:57:39.842Z,7.20
2019-02-22T03:59:33.954Z,7.20
2019-02-22T04:01:28.664Z,7.20
2019-02-22T04:03:23.786Z,7.20
2019-02-22T04:05:18.563Z,7.20
2019-02-22T04:07:13.760Z,7.20
2019-02-22T04:09:11.390Z,7.20
2019-02-22T04:11:05.787Z,7.20
2019-02-22T04:13:00.406Z,7.20
2019-02-22T04:14:55.292Z,7.10
2019-02-22T04:16:49.216Z,7.20
2019-02-22T04:18:43.922Z,7.20
2019-02-22T04:20:38.812Z,7.10
2019-02-22T04:22:33.924Z,7.10
2019-02-22T04:24:28.887Z,7.10
2019-02-22T04:26:23.895Z,7.10
2019-02-22T04:28:18.890Z,7.10
2019-02-22T04:30:12.920Z,7.10
2019-02-22T04:32:07.630Z,7.10
2019-02-22T04:34:02.517Z,7.10
2019-02-22T04:35:57.201Z,7.10
2019-02-22T04:37:52.010Z,7.10
2019-02-22T04:39:46.751Z,7.10
2019-02-22T04:41:41.326Z,7.10
2019-02-22T04:43:35.392Z,7.10
2019-02-22T04:45:29.858Z,7.10
2019-02-22T04:47:24.555Z,7.10
2019-02-22T04:49:19.518Z,7.10
2019-02-22T04:51:14.412Z,7.10
2019-02-22T04:53:09.203Z,7.10
2019-02-22T04:55:03.922Z,7.10
2019-02-22T04:56:57.925Z,7.10
2019-02-22T04:58:52.512Z,7.10
2019-02-22T05:00:47.479Z,7.10
2019-02-22T05:02:41.543Z,7.10
2019-02-22T05:04:36.190Z,7.10
2019-02-22T05:06:30.779Z,7.10
2019-02-22T05:08:26.328Z,7.10
2019-02-22T05:10:20.567Z,7.10
2019-02-22T05:12:15.311Z,7.10
2019-02-22T05:14:10.018Z,7.10
2019-02-22T05:16:04.601Z,7.10
2019-02-22T05:17:58.730Z,7.10
2019-02-22T05:19:53.647Z,7.10
2019-02-22T05:21:48.219Z,7.10
2019-02-22T05:23:42.489Z,7.10
2019-02-22T05:25:37.795Z,7.10
2019-02-22T05:27:32.491Z,7.10
2019-02-22T05:29:26.869Z,7.10
2019-02-22T05:31:21.478Z,7.10
2019-02-22T05:33:16.061Z,7.10
2019-02-22T05:35:10.694Z,7.10
2019-02-22T05:37:06.241Z,7.10
2019-02-22T05:39:00.859Z,7.10
2019-02-22T05:40:56.549Z,7.10
2019-02-22T05:42:51.093Z,7.10
2019-02-22T05:44:45.331Z,7.20
2019-02-22T05:46:39.837Z,7.20
2019-02-22T05:48:34.251Z,7.20
2019-02-22T05:50:29.110Z,7.20
2019-02-22T05:52:24.111Z,7.20
2019-02-22T05:54:18.888Z,7.20
2019-02-22T05:56:13.534Z,7.20
2019-02-22T05:58:08.335Z,7.20
2019-02-22T06:00:03.297Z,7.20
2019-02-22T06:01:58.063Z,7.20
2019-02-22T06:03:52.571Z,7.20
2019-02-22T06:05:46.750Z,7.20
2019-02-22T06:07:41.419Z,7.20
2019-02-22T06:09:36.275Z,7.20
2019-02-22T06:11:30.402Z,7.20
2019-02-22T06:13:25.267Z,7.20
2019-02-22T06:15:20.194Z,7.20
2019-02-22T06:17:15.049Z,7.20
2019-02-22T06:19:09.233Z,7.20
2019-02-22T06:21:04.412Z,7.20
2019-02-22T06:22:59.914Z,7.20
2019-02-22T06:24:54.394Z,7.20
2019-02-22T06:26:48.963Z,7.20
2019-02-22T06:28:42.722Z,7.20
2019-02-22T06:30:37.232Z,7.20
2019-02-22T06:32:31.962Z,7.20
2019-02-22T06:34:26.834Z,7.20
2019-02-22T06:36:21.120Z,7.10
2019-02-22T06:38:16.233Z,7.20
2019-02-22T06:40:10.550Z,7.20
2019-02-22T06:42:05.566Z,7.20
2019-02-22T06:44:00.221Z,7.20
2019-02-22T06:45:54.490Z,7.20
2019-02-22T06:47:49.268Z,7.20
2019-02-22T06:49:44.564Z,7.20
2019-02-22T06:51:39.406Z,7.20
2019-02-22T06:53:34.079Z,7.10
2019-02-22T06:55:28.069Z,7.10
2019-02-22T06:57:22.424Z,7.10
2019-02-22T06:59:17.055Z,7.10
2019-02-22T07:01:11.722Z,7.10
2019-02-22T07:03:06.548Z,7.10
2019-02-22T07:05:00.644Z,7.10
2019-02-22T07:06:55.425Z,7.10
2019-02-22T07:08:50.819Z,7.10
2019-02-22T07:11:03.904Z,7.10
2019-02-22T07:13:05.096Z,7.20
2019-02-22T07:14:59.489Z,7.10
2019-02-22T07:16:54.139Z,7.10
2019-02-22T07:18:49.915Z,7.20
2019-02-22T07:20:43.917Z,7.20
2019-02-22T07:22:38.827Z,7.20
2019-02-22T07:24:32.948Z,7.20
2019-02-22T07:26:27.844Z,7.20
2019-02-22T07:28:22.566Z,7.20
2019-02-22T07:30:16.751Z,7.20
2019-02-22T07:32:11.496Z,7.20
2019-02-22T07:34:05.870Z,7.20
2019-02-22T07:35:59.781Z,7.20
2019-02-22T07:37:54.559Z,7.20
2019-02-22T07:39:49.231Z,7.20
2019-02-22T07:41:43.814Z,7.20
2019-02-22T07:43:38.032Z,7.20
2019-02-22T07:45:32.719Z,7.20
2019-02-22T07:47:29.276Z,7.20
2019-02-22T07:49:25.415Z,7.20
2019-02-22T07:51:20.875Z,7.30
2019-02-22T07:53:15.887Z,7.30
2019-02-22T07:55:10.772Z,7.30
2019-02-22T07:57:05.241Z,7.30
2019-02-22T07:59:03.117Z,7.30
2019-02-22T08:00:57.561Z,7.30
2019-02-22T08:02:52.687Z,7.30
2019-02-22T08:04:47.190Z,7.30
2019-02-22T08:06:42.599Z,7.40
2019-02-22T08:08:37.023Z,7.40
2019-02-22T08:10:31.482Z,7.40
2019-02-22T08:12:26.001Z,7.40
2019-02-22T08:14:20.857Z,7.40
2019-02-22T08:16:15.823Z,7.50
2019-02-22T08:18:10.408Z,7.50
2019-02-22T08:20:06.395Z,7.50
2019-02-22T08:22:03.470Z,7.50
2019-02-22T08:23:57.165Z,7.50
2019-02-22T08:25:51.393Z,7.50
2019-02-22T08:27:53.165Z,7.50
2019-02-22T08:29:40.931Z,7.50
2019-02-22T08:31:35.845Z,7.50
2019-02-22T08:33:30.558Z,7.50
2019-02-22T08:35:24.675Z,7.50
2019-02-22T08:37:19.462Z,7.50
2019-02-22T08:39:13.268Z,7.40
2019-02-22T08:41:07.426Z,7.50
2019-02-22T08:43:02.117Z,7.50
2019-02-22T08:44:56.715Z,7.50
2019-02-22T08:46:50.716Z,7.50
2019-02-22T08:48:45.191Z,7.50
2019-02-22T08:50:39.883Z,7.50
2019-02-22T08:52:34.419Z,7.50
2019-02-22T08:54:28.902Z,7.50
2019-02-22T08:56:22.840Z,7.50
2019-02-22T08:58:17.133Z,7.50
2019-02-22T09:00:12.332Z,7.60
2019-02-22T09:02:07.548Z,7.70
2019-02-22T09:04:02.094Z,7.70
2019-02-22T09:05:55.997Z,7.80
2019-02-22T09:07:50.639Z,8.00
2019-02-22T09:09:45.138Z,8.10
2019-02-22T09:11:39.752Z,8.20
2019-02-22T09:13:43.132Z,8.40
2019-02-22T09:15:30.359Z,8.50
2019-02-22T09:17:24.943Z,8.50
2019-02-22T09:19:19.636Z,8.60
2019-02-22T09:21:16.263Z,8.60
2019-02-22T09:23:10.880Z,8.60
2019-02-22T09:25:05.400Z,8.70
2019-02-22T09:27:00.003Z,8.60
2019-02-22T09:28:55.654Z,8.60
2019-02-22T09:30:50.080Z,8.60
2019-02-22T09:32:44.457Z,8.60
2019-02-22T09:34:39.345Z,8.60
2019-02-22T09:36:33.911Z,8.60
2019-02-22T09:38:28.768Z,8.60
2019-02-22T09:40:22.673Z,8.60
2019-02-22T09:42:22.438Z,8.60
2019-02-22T09:44:16.834Z,8.60
2019-02-22T09:46:10.828Z,8.60
2019-02-22T09:48:05.796Z,8.60
2019-02-22T09:50:00.627Z,8.60
2019-02-22T09:51:54.657Z,8.70
2019-02-22T09:53:49.474Z,8.70
2019-02-22T09:55:44.541Z,8.80
2019-02-22T09:57:39.584Z,8.80
2019-02-22T09:59:34.383Z,8.80
2019-02-22T10:01:28.349Z,8.80
2019-02-22T10:03:22.960Z,8.90
2019-02-22T10:05:17.767Z,8.90
2019-02-22T10:07:13.210Z,9.00
2019-02-22T10:09:08.193Z,9.00
2019-02-22T10:11:02.752Z,9.10
2019-02-22T10:12:57.089Z,9.20
2019-02-22T10:14:51.612Z,9.20
2019-02-22T10:16:47.284Z,9.20
2019-02-22T10:18:41.844Z,9.20
2019-02-22T10:20:37.627Z,9.30
2019-02-22T10:22:32.250Z,9.40
2019-02-22T10:24:26.910Z,9.40
2019-02-22T10:26:21.539Z,9.50
2019-02-22T10:28:18.081Z,9.60
2019-02-22T10:30:13.309Z,9.60
2019-02-22T10:32:08.374Z,9.70
2019-02-22T10:34:03.444Z,9.80
2019-02-22T10:35:58.083Z,9.80
2019-02-22T10:37:52.237Z,9.80
2019-02-22T10:39:46.797Z,9.70
2019-02-22T10:41:41.600Z,9.70
2019-02-22T10:43:36.119Z,9.60
2019-02-22T10:45:30.928Z,9.60
2019-02-22T10:47:24.922Z,9.50
2019-02-22T10:49:19.982Z,9.50
2019-02-22T10:51:14.147Z,9.50
2019-02-22T10:53:09.210Z,9.50
2019-02-22T10:55:03.228Z,9.40
2019-02-22T10:56:57.915Z,9.30
2019-02-22T10:58:52.611Z,9.30
2019-02-22T11:00:47.395Z,9.30
2019-02-22T11:02:42.170Z,9.40
2019-02-22T11:04:36.210Z,9.40
2019-02-22T11:06:30.242Z,9.50
2019-02-22T11:08:24.595Z,9.50
2019-02-22T11:10:19.210Z,9.60
2019-02-22T11:12:14.123Z,9.60
2019-02-22T11:14:08.802Z,9.80
2019-02-22T11:16:02.725Z,9.90
2019-02-22T11:17:56.854Z,10.00
2019-02-22T11:19:51.555Z,10.20
2019-02-22T11:21:45.543Z,10.30
2019-02-22T11:23:46.826Z,10.40
2019-02-22T11:25:43.952Z,10.50
2019-02-22T11:27:38.867Z,10.70
2019-02-22T11:29:34.328Z,10.70
2019-02-22T11:31:29.828Z,10.70
2019-02-22T11:33:24.655Z,10.90
2019-02-22T11:35:19.273Z,10.90
2019-02-22T11:37:13.965Z,10.90
2019-02-22T11:39:09.196Z,10.90
2019-02-22T11:41:05.195Z,11.00
2019-02-22T11:43:00.001Z,11.10
2019-02-22T11:44:55.887Z,11.20
2019-02-22T11:46:50.818Z,11.20
2019-02-22T11:48:45.688Z,11.40
2019-02-22T11:50:40.740Z,11.40
2019-02-22T11:52:35.796Z,11.40
2019-02-22T11:54:29.891Z,11.50
2019-02-22T11:56:24.968Z,11.50
2019-02-22T11:58:19.296Z,11.50
2019-02-22T12:00:17.326Z,11.60
2019-02-22T12:02:12.746Z,11.60
2019-02-22T12:04:06.843Z,11.50
2019-02-22T12:06:01.750Z,11.60
2019-02-22T12:07:56.751Z,11.70
2019-02-22T12:09:51.039Z,11.70
2019-02-22T12:11:46.052Z,11.60
2019-02-22T12:13:40.929Z,11.70
2019-02-22T12:15:34.920Z,11.70
2019-02-22T12:17:29.637Z,11.80
2019-02-22T12:19:24.047Z,11.80
2019-02-22T12:21:18.279Z,11.80
2019-02-22T12:23:12.887Z,11.70
2019-02-22T12:25:08.036Z,11.80
2019-02-22T12:27:02.583Z,11.80
2019-02-22T12:28:56.630Z,11.80
2019-02-22T12:30:51.422Z,11.90
2019-02-22T12:32:45.894Z,12.10
2019-02-22T12:34:40.440Z,12.20
2019-02-22T12:36:34.819Z,12.10
2019-02-22T12:38:29.458Z,12.20
2019-02-22T12:40:24.130Z,12.20
2019-02-22T12:42:18.909Z,12.30
2019-02-22T12:44:13.215Z,12.30
2019-02-22T12:46:07.751Z,12.20
2019-02-22T12:48:02.612Z,12.10
2019-02-22T12:49:57.279Z,12.00
2019-02-22T12:51:52.221Z,11.90
2019-02-22T12:53:46.181Z,11.80
2019-02-22T12:55:40.605Z,11.70
2019-02-22T12:57:35.442Z,11.70
2019-02-22T12:59:30.174Z,11.80
2019-02-22T13:01:24.724Z,11.90
2019-02-22T13:03:19.573Z,11.80
2019-02-22T13:05:15.517Z,11.70
2019-02-22T13:07:09.984Z,11.70
2019-02-22T13:09:05.690Z,11.60
2019-02-22T13:11:01.252Z,11.50
2019-02-22T13:12:55.261Z,11.40
2019-02-22T13:14:49.526Z,11.30
2019-02-22T13:16:44.542Z,11.40
2019-02-22T13:18:39.864Z,11.40
2019-02-22T13:20:35.155Z,11.40
2019-02-22T13:22:29.904Z,11.40
2019-02-22T13:24:24.525Z,11.30
2019-02-22T13:26:18.632Z,11.40
2019-02-22T13:28:12.637Z,11.40
2019-02-22T13:30:08.210Z,11.50
2019-02-22T13:32:02.078Z,11.60
2019-02-22T13:33:56.955Z,11.70
2019-02-22T13:35:51.663Z,11.80
2019-02-22T13:37:45.826Z,11.80
2019-02-22T13:39:40.848Z,11.70
2019-02-22T13:41:35.224Z,11.60
2019-02-22T13:43:30.332Z,11.40
2019-02-22T13:45:26.903Z,11.30
2019-02-22T13:47:22.045Z,11.30
2019-02-22T13:49:16.595Z,11.30
2019-02-22T13:51:11.671Z,11.20
2019-02-22T13:53:06.601Z,11.30
2019-02-22T13:55:00.702Z,11.40
2019-02-22T13:56:57.067Z,11.50
2019-02-22T13:58:52.274Z,11.70
2019-02-22T14:00:47.019Z,11.70
2019-02-22T14:02:42.645Z,11.90
2019-02-22T14:04:37.130Z,12.10
2019-02-22T14:06:31.924Z,12.20
2019-02-22T14:08:27.107Z,12.10
2019-02-22T14:10:24.508Z,12.10
2019-02-22T14:12:20.148Z,11.90
2019-02-22T14:14:15.991Z,11.60
2019-02-22T14:16:10.449Z,11.50
2019-02-22T14:18:05.051Z,11.40
2019-02-22T14:19:59.505Z,11.40
2019-02-22T14:21:54.071Z,11.30
2019-02-22T14:23:48.943Z,11.50
2019-02-22T14:25:43.646Z,11.60
2019-02-22T14:27:38.605Z,12.10
2019-02-22T14:29:33.369Z,12.50
2019-02-22T14:31:27.341Z,12.60
2019-02-22T14:33:22.075Z,12.80
2019-02-22T14:35:16.972Z,12.70
2019-02-22T14:37:14.768Z,12.70
2019-02-22T14:39:09.741Z,12.70
2019-02-22T14:41:05.718Z,12.60
2019-02-22T14:43:00.632Z,12.50
2019-02-22T14:44:56.419Z,12.40
2019-02-22T14:46:50.246Z,12.30
2019-02-22T14:48:46.613Z,12.30
2019-02-22T14:50:42.289Z,12.20
2019-02-22T14:52:36.799Z,12.00
2019-02-22T14:54:31.331Z,12.00
2019-02-22T14:56:26.120Z,11.80
2019-02-22T14:58:21.020Z,11.80
2019-02-22T15:00:17.095Z,11.70
2019-02-22T15:02:12.042Z,11.60
2019-02-22T15:04:06.724Z,11.60
2019-02-22T15:06:02.492Z,11.50
2019-02-22T15:07:57.464Z,11.40
2019-02-22T15:09:51.541Z,11.40
2019-02-22T15:11:46.188Z,11.40
2019-02-22T15:13:40.391Z,11.40
2019-02-22T15:16:00.598Z,11.40
2019-02-22T15:18:01.089Z,11.30
2019-02-22T15:19:55.800Z,11.20
2019-02-22T15:21:49.767Z,11.20
2019-02-22T15:23:45.898Z,11.20
2019-02-22T15:25:41.527Z,11.20
2019-02-22T15:27:36.367Z,11.10
2019-02-22T15:29:30.687Z,11.00
2019-02-22T15:31:25.712Z,10.90
2019-02-22T15:33:20.281Z,10.80
2019-02-22T15:35:15.342Z,10.70
2019-02-22T15:37:09.990Z,10.60
2019-02-22T15:39:05.890Z,10.50
2019-02-22T15:41:01.541Z,10.40
2019-02-22T15:42:55.418Z,10.30
2019-02-22T15:44:50.460Z,10.20
2019-02-22T15:46:45.845Z,10.20
2019-02-22T15:48:40.302Z,10.10
2019-02-22T15:50:35.463Z,10.10
2019-02-22T15:52:29.452Z,10.00
2019-02-22T15:54:26.186Z,9.90
2019-02-22T15:56:21.982Z,9.90
2019-02-22T15:58:15.875Z,9.80
2019-02-22T16:00:13.333Z,9.80
2019-02-22T16:02:11.032Z,9.70
2019-02-22T16:04:20.316Z,9.60
2019-02-22T16:06:15.076Z,9.60
2019-02-22T16:08:09.241Z,9.60
2019-02-22T16:10:03.296Z,9.60
2019-02-22T16:11:59.119Z,9.60
2019-02-22T16:13:53.799Z,9.50
2019-02-22T16:15:48.405Z,9.50
2019-02-22T16:17:43.263Z,9.50
2019-02-22T16:19:37.963Z,9.50
2019-02-22T16:21:32.771Z,9.40
2019-02-22T16:23:26.751Z,9.40
2019-02-22T16:25:20.733Z,9.30
2019-02-22T16:27:15.470Z,9.20
2019-02-22T16:29:09.678Z,9.20
2019-02-22T16:31:04.577Z,9.20
2019-02-22T16:32:58.525Z,9.20
2019-02-22T16:34:53.444Z,9.10
2019-02-22T16:36:48.051Z,9.10
2019-02-22T16:38:43.127Z,9.10
2019-02-22T16:40:37.961Z,9.00
2019-02-22T16:42:34.000Z,8.90
2019-02-22T16:44:28.711Z,8.90
2019-02-22T16:46:34.210Z,8.80
2019-02-22T16:48:19.229Z,8.80
2019-02-22T16:50:14.247Z,8.80
2019-02-22T16:52:09.490Z,8.80
2019-02-22T16:54:04.616Z,8.80
2019-02-22T16:55:59.151Z,8.80
2019-02-22T16:57:53.690Z,8.80
2019-02-22T16:59:48.458Z,8.80
2019-02-22T17:01:42.474Z,8.80
2019-02-22T17:03:36.905Z,8.80
2019-02-22T17:05:31.975Z,8.70
2019-02-22T17:07:26.548Z,8.70
2019-02-22T17:09:21.459Z,8.70
2019-02-22T17:11:16.391Z,8.70
2019-02-22T17:13:11.209Z,8.70
2019-02-22T17:15:05.661Z,8.60
2019-02-22T17:17:00.792Z,8.60
2019-02-22T17:18:55.621Z,8.60
2019-02-22T17:20:50.074Z,8.60
2019-02-22T17:22:44.717Z,8.60
2019-02-22T17:24:38.598Z,8.50
2019-02-22T17:26:32.767Z,8.50
2019-02-22T17:28:27.893Z,8.50
2019-02-22T17:30:28.939Z,8.50
2019-02-22T17:32:23.588Z,8.40
2019-02-22T17:34:18.205Z,8.50
2019-02-22T17:36:12.082Z,8.40
2019-02-22T17:38:07.081Z,8.40
2019-02-22T17:40:01.895Z,8.40
2019-02-22T17:41:57.513Z,8.40
2019-02-22T17:43:52.631Z,8.30
2019-02-22T17:45:46.815Z,8.30
2019-02-22T17:47:41.787Z,8.20
2019-02-22T17:49:37.435Z,8.20
2019-02-22T17:51:32.130Z,8.10
2019-02-22T17:53:27.531Z,8.10
2019-02-22T17:55:22.209Z,8.10
2019-02-22T17:57:20.877Z,8.00
2019-02-22T17:59:16.450Z,8.00
2019-02-22T18:01:11.066Z,8.00
2019-02-22T18:03:06.562Z,7.90
2019-02-22T18:05:01.309Z,7.90
2019-02-22T18:06:56.011Z,7.90
2019-02-22T18:08:50.666Z,7.80
2019-02-22T18:10:44.609Z,7.80
2019-02-22T18:12:38.563Z,7.70
2019-02-22T18:14:32.606Z,7.70
2019-02-22T18:16:27.269Z,7.70
2019-02-22T18:18:22.356Z,7.60
2019-02-22T18:20:17.341Z,7.60
2019-02-22T18:22:11.942Z,7.50
2019-02-22T18:24:06.500Z,7.50
2019-02-22T18:26:01.451Z,7.50
2019-02-22T18:27:56.240Z,7.40
2019-02-22T18:29:50.995Z,7.50
2019-02-22T18:31:45.732Z,7.50
2019-02-22T18:33:39.917Z,7.50
2019-02-22T18:35:34.538Z,7.50
2019-02-22T18:37:29.651Z,7.50
2019-02-22T18:39:23.937Z,7.50
2019-02-22T18:41:18.072Z,7.50
2019-02-22T18:43:12.969Z,7.40
2019-02-22T18:45:07.284Z,7.50
2019-02-22T18:47:01.995Z,7.50
2019-02-22T18:48:56.388Z,7.50
2019-02-22T18:50:50.786Z,7.60
2019-02-22T18:52:45.510Z,7.60
2019-02-22T18:54:39.642Z,7.60
2019-02-22T18:56:34.182Z,7.60
2019-02-22T18:58:29.154Z,7.70
2019-02-22T19:00:24.025Z,7.70
2019-02-22T19:02:20.679Z,7.70
2019-02-22T19:04:16.850Z,7.70
2019-02-22T19:06:11.127Z,7.70
2019-02-22T19:08:05.182Z,7.80
2019-02-22T19:09:59.362Z,7.80
2019-02-22T19:11:54.144Z,7.80
2019-02-22T19:13:49.054Z,7.80
2019-02-22T19:15:43.081Z,7.90
2019-02-22T19:17:37.778Z,7.90
2019-02-22T19:19:32.580Z,7.90
2019-02-22T19:21:26.698Z,7.90
2019-02-22T19:23:21.458Z,7.90
2019-02-22T19:25:16.120Z,7.90
2019-02-22T19:27:09.799Z,7.90
2019-02-22T19:29:04.395Z,7.80
2019-02-22T19:30:59.002Z,7.80
2019-02-22T19:32:53.091Z,7.80
2019-02-22T19:34:47.495Z,7.90
2019-02-22T19:36:41.962Z,7.90
2019-02-22T19:38:36.434Z,7.90
2019-02-22T19:40:31.659Z,7.90
2019-02-22T19:42:26.715Z,7.90
2019-02-22T19:44:21.610Z,7.90
2019-02-22T19:46:16.466Z,7.90
2019-02-22T19:48:11.046Z,7.90
2019-02-22T19:50:07.120Z,7.90
2019-02-22T19:52:03.170Z,7.80
2019-02-22T19:53:57.908Z,7.80
2019-02-22T19:55:51.919Z,7.80
2019-02-22T19:57:46.608Z,7.80
2019-02-22T19:59:41.350Z,7.70
2019-02-22T20:01:36.175Z,7.70
2019-02-22T20:03:31.032Z,7.70
2019-02-22T20:05:25.637Z,7.60
2019-02-22T20:07:20.447Z,7.60
2019-02-22T20:09:15.258Z,7.50
2019-02-22T20:11:09.693Z,7.50
2019-02-22T20:13:04.056Z,7.50
2019-02-22T20:14:58.567Z,7.40
2019-02-22T20:16:54.296Z,7.40
2019-02-22T20:18:48.464Z,7.30
2019-02-22T20:20:42.316Z,7.30
2019-02-22T20:22:37.993Z,7.30
2019-02-22T20:24:32.659Z,7.20
2019-02-22T20:26:27.289Z,7.20
2019-02-22T20:28:21.290Z,7.20
2019-02-22T20:30:15.615Z,7.10
2019-02-22T20:32:10.102Z,7.10
2019-02-22T20:34:04.843Z,7.10
2019-02-22T20:36:00.046Z,7.10
2019-02-22T20:37:54.101Z,7.10
2019-02-22T20:39:48.317Z,7.10
2019-02-22T20:41:42.952Z,7.10
2019-02-22T20:43:36.977Z,7.10
2019-02-22T20:45:30.882Z,7.10
2019-02-22T20:47:24.761Z,7.00
2019-02-22T20:49:19.504Z,7.00
2019-02-22T20:51:14.409Z,7.00
2019-02-22T20:53:08.793Z,7.00
2019-02-22T20:55:02.755Z,7.00
2019-02-22T20:56:56.719Z,7.00
2019-02-22T20:58:51.220Z,7.00
2019-02-22T21:00:45.313Z,6.90
2019-02-22T21:02:39.238Z,6.90
2019-02-22T21:04:33.645Z,6.90
2019-02-22T21:06:28.348Z,6.90
2019-02-22T21:08:24.722Z,6.90
2019-02-22T21:10:19.425Z,6.90
2019-02-22T21:12:13.342Z,6.80
2019-02-22T21:14:07.855Z,6.80
2019-02-22T21:16:02.515Z,6.80
2019-02-22T21:17:57.120Z,6.80
2019-02-22T21:19:51.816Z,6.80
2019-02-22T21:21:46.864Z,6.80
2019-02-22T21:23:41.947Z,6.70
2019-02-22T21:25:35.939Z,6.70
2019-02-22T21:27:30.901Z,6.70
2019-02-22T21:29:25.624Z,6.70
2019-02-22T21:31:20.103Z,6.70
2019-02-22T21:33:14.928Z,6.60
2019-02-22T21:35:09.250Z,6.60
2019-02-22T21:37:04.683Z,6.60
2019-02-22T21:38:59.817Z,6.60
2019-02-22T21:40:54.192Z,6.50
2019-02-22T21:42:48.367Z,6.40
2019-02-22T21:44:43.481Z,6.40
2019-02-22T21:46:38.354Z,6.40
2019-02-22T21:48:32.561Z,6.30
2019-02-22T21:50:27.554Z,6.20
2019-02-22T21:52:22.263Z,6.10
2019-02-22T21:54:17.018Z,6.00
2019-02-22T21:56:11.279Z,5.90
2019-02-22T21:58:05.490Z,5.90
2019-02-22T21:59:59.815Z,5.80
2019-02-22T22:01:54.859Z,5.70
2019-02-22T22:03:51.330Z,5.60
2019-02-22T22:05:45.347Z,5.50
2019-02-22T22:07:40.363Z,5.50
2019-02-22T22:09:35.082Z,5.40
2019-02-22T22:11:29.821Z,5.30
2019-02-22T22:13:23.714Z,5.30
2019-02-22T22:15:17.615Z,5.20
2019-02-22T22:17:12.044Z,5.10
2019-02-22T22:19:06.294Z,5.10
2019-02-22T22:21:01.155Z,5.10
2019-02-22T22:22:55.676Z,5.00
2019-02-22T22:24:50.615Z,4.90
2019-02-22T22:26:45.766Z,4.90
2019-02-22T22:28:41.725Z,4.80
2019-02-22T22:30:36.432Z,4.80
2019-02-22T22:32:30.388Z,4.70
2019-02-22T22:34:25.092Z,4.70
2019-02-22T22:36:19.371Z,4.70
2019-02-22T22:38:13.731Z,4.60
2019-02-22T22:40:09.074Z,4.60
2019-02-22T22:42:03.679Z,4.60
2019-02-22T22:43:58.598Z,4.50
2019-02-22T22:45:52.897Z,4.50
2019-02-22T22:47:46.986Z,4.50
2019-02-22T22:49:41.787Z,4.50
2019-02-22T22:51:49.634Z,4.40
2019-02-22T22:53:44.709Z,4.40
2019-02-22T22:55:39.374Z,4.30
2019-02-22T22:57:34.160Z,4.30
2019-02-22T22:59:29.122Z,4.30
2019-02-22T23:01:25.488Z,4.20
2019-02-22T23:03:20.377Z,4.20
2019-02-22T23:05:14.646Z,4.20
2019-02-22T23:07:09.284Z,4.10
2019-02-22T23:09:07.387Z,4.10
2019-02-22T23:11:03.376Z,4.00
2019-02-22T23:12:58.545Z,4.00
2019-02-22T23:14:53.408Z,4.00
2019-02-22T23:16:48.366Z,3.90
2019-02-22T23:18:42.885Z,3.90
2019-02-22T23:20:37.566Z,3.90
2019-02-22T23:22:31.447Z,3.80
2019-02-22T23:24:26.345Z,3.80
2019-02-22T23:26:21.652Z,3.80
2019-02-22T23:28:15.939Z,3.70
2019-02-22T23:30:10.422Z,3.70
2019-02-22T23:32:05.008Z,3.60
2019-02-22T23:34:00.383Z,3.60
2019-02-22T23:35:55.060Z,3.60
2019-02-22T23:37:49.467Z,3.60
2019-02-22T23:39:43.808Z,3.60
2019-02-22T23:41:39.506Z,3.50
2019-02-22T23:43:34.038Z,3.50
2019-02-22T23:45:47.093Z,3.50
2019-02-22T23:47:41.765Z,3.50
2019-02-22T23:49:36.603Z,3.40
2019-02-22T23:51:31.525Z,3.40
2019-02-22T23:53:25.391Z,3.40
2019-02-22T23:55:20.273Z,3.40
2019-02-22T23:57:15.026Z,3.30
2019-02-22T23:59:09.356Z,3.30
